sensor_id;sensor_type;location;lat;lon;timestamp;pressure;altitude;pressure_sealevel;temperature;humidity
57791;BME280;43621;51.798;21.588;2023-01-20T00:00:15;99148.05;;;2.64;75.06
57791;BME280;43621;51.798;21.588;2023-01-20T00:04:37;99147.33;;;2.67;75.24
57791;BME280;43621;51.798;21.588;2023-01-20T00:08:39;99149.61;;;2.66;75.33
57791;BME280;43621;51.798;21.588;2023-01-20T00:12:41;99154.88;;;2.67;75.61
57791;BME280;43621;51.798;21.588;2023-01-20T00:16:43;99160.56;;;2.67;75.61
57791;BME280;43621;51.798;21.588;2023-01-20T00:20:45;99161.02;;;2.58;75.21
57791;BME280;43621;51.798;21.588;2023-01-20T00:24:47;99164.77;;;2.51;75.26
57791;BME280;43621;51.798;21.588;2023-01-20T00:28:52;99169.30;;;2.51;75.34
57791;BME280;43621;51.798;21.588;2023-01-20T00:32:54;99175.33;;;2.56;75.34
57791;BME280;43621;51.798;21.588;2023-01-20T00:36:56;99181.01;;;2.63;75.26
57791;BME280;43621;51.798;21.588;2023-01-20T00:40:58;99181.86;;;2.66;75.07
57791;BME280;43621;51.798;21.588;2023-01-20T00:45:00;99190.00;;;2.65;75.02
57791;BME280;43621;51.798;21.588;2023-01-20T00:49:01;99196.92;;;2.65;75.36
57791;BME280;43621;51.798;21.588;2023-01-20T00:53:03;99201.58;;;2.62;75.28
57791;BME280;43621;51.798;21.588;2023-01-20T00:57:05;99205.39;;;2.57;75.11
57791;BME280;43621;51.798;21.588;2023-01-20T01:01:07;99218.77;;;2.50;75.26
57791;BME280;43621;51.798;21.588;2023-01-20T01:05:09;99224.30;;;2.50;75.51
57791;BME280;43621;51.798;21.588;2023-01-20T01:09:11;99224.33;;;2.52;75.24
57791;BME280;43621;51.798;21.588;2023-01-20T01:13:13;99224.24;;;2.53;75.12
57791;BME280;43621;51.798;21.588;2023-01-20T01:17:15;99223.84;;;2.59;75.32
57791;BME280;43621;51.798;21.588;2023-01-20T01:21:17;99222.95;;;2.69;75.44
57791;BME280;43621;51.798;21.588;2023-01-20T01:25:19;99228.36;;;2.73;75.38
57791;BME280;43621;51.798;21.588;2023-01-20T01:29:21;99238.64;;;2.72;75.34
57791;BME280;43621;51.798;21.588;2023-01-20T01:33:23;99233.36;;;2.68;75.33
57791;BME280;43621;51.798;21.588;2023-01-20T01:37:26;99221.38;;;2.62;75.24
57791;BME280;43621;51.798;21.588;2023-01-20T01:41:29;99220.61;;;2.51;74.88
57791;BME280;43621;51.798;21.588;2023-01-20T01:45:31;99225.67;;;2.43;74.94
57791;BME280;43621;51.798;21.588;2023-01-20T01:49:33;99231.59;;;2.42;74.96
57791;BME280;43621;51.798;21.588;2023-01-20T01:53:45;99239.09;;;2.43;75.00
57791;BME280;43621;51.798;21.588;2023-01-20T01:57:49;99231.60;;;2.47;75.16
57791;BME280;43621;51.798;21.588;2023-01-20T02:01:52;99218.70;;;2.46;75.17
57791;BME280;43621;51.798;21.588;2023-01-20T02:05:56;99219.91;;;2.41;75.09
57791;BME280;43621;51.798;21.588;2023-01-20T02:09:59;99234.07;;;2.34;75.12
57791;BME280;43621;51.798;21.588;2023-01-20T02:14:01;99244.89;;;2.24;75.07
57791;BME280;43621;51.798;21.588;2023-01-20T02:22:42;99248.41;;;2.18;75.37
57791;BME280;43621;51.798;21.588;2023-01-20T02:27:10;99248.84;;;2.24;75.41
57791;BME280;43621;51.798;21.588;2023-01-20T02:35:45;99259.96;;;2.35;75.54
57791;BME280;43621;51.798;21.588;2023-01-20T02:40:26;99253.77;;;2.38;75.47
57791;BME280;43621;51.798;21.588;2023-01-20T02:48:52;99262.27;;;2.21;75.54
57791;BME280;43621;51.798;21.588;2023-01-20T02:52:58;99265.64;;;2.17;75.47
57791;BME280;43621;51.798;21.588;2023-01-20T02:57:04;99268.73;;;2.10;75.44
57791;BME280;43621;51.798;21.588;2023-01-20T03:01:12;99264.38;;;2.09;75.47
57791;BME280;43621;51.798;21.588;2023-01-20T03:05:22;99263.60;;;2.12;75.46
57791;BME280;43621;51.798;21.588;2023-01-20T03:09:30;99272.61;;;2.14;75.27
57791;BME280;43621;51.798;21.588;2023-01-20T03:17:44;99295.89;;;2.29;75.46
57791;BME280;43621;51.798;21.588;2023-01-20T03:21:47;99310.45;;;2.35;75.59
57791;BME280;43621;51.798;21.588;2023-01-20T03:25:49;99321.58;;;2.31;75.50
57791;BME280;43621;51.798;21.588;2023-01-20T03:29:51;99323.25;;;2.26;75.70
57791;BME280;43621;51.798;21.588;2023-01-20T03:33:56;99321.16;;;2.24;75.69
57791;BME280;43621;51.798;21.588;2023-01-20T03:37:59;99323.15;;;2.20;75.77
57791;BME280;43621;51.798;21.588;2023-01-20T03:42:09;99334.55;;;2.17;75.68
57791;BME280;43621;51.798;21.588;2023-01-20T03:46:26;99330.38;;;2.15;75.67
57791;BME280;43621;51.798;21.588;2023-01-20T03:50:41;99326.48;;;2.24;75.82
57791;BME280;43621;51.798;21.588;2023-01-20T03:54:50;99325.83;;;2.37;75.74
57791;BME280;43621;51.798;21.588;2023-01-20T03:58:54;99323.88;;;2.42;75.48
57791;BME280;43621;51.798;21.588;2023-01-20T04:03:02;99325.52;;;2.44;75.44
57791;BME280;43621;51.798;21.588;2023-01-20T04:07:09;99332.45;;;2.40;75.50
57791;BME280;43621;51.798;21.588;2023-01-20T04:11:12;99338.91;;;2.37;75.67
57791;BME280;43621;51.798;21.588;2023-01-20T04:15:14;99355.94;;;2.35;75.72
57791;BME280;43621;51.798;21.588;2023-01-20T04:19:17;99370.12;;;2.34;75.82
57791;BME280;43621;51.798;21.588;2023-01-20T04:23:29;99368.98;;;2.30;75.68
57791;BME280;43621;51.798;21.588;2023-01-20T04:27:32;99356.31;;;2.26;75.53
57791;BME280;43621;51.798;21.588;2023-01-20T04:31:34;99345.30;;;2.24;75.29
57791;BME280;43621;51.798;21.588;2023-01-20T04:35:36;99348.85;;;2.22;75.27
57791;BME280;43621;51.798;21.588;2023-01-20T04:39:38;99360.59;;;2.24;75.36
57791;BME280;43621;51.798;21.588;2023-01-20T04:43:43;99367.10;;;2.28;75.48
57791;BME280;43621;51.798;21.588;2023-01-20T04:47:45;99372.49;;;2.27;75.51
57791;BME280;43621;51.798;21.588;2023-01-20T04:51:47;99380.59;;;2.23;75.63
57791;BME280;43621;51.798;21.588;2023-01-20T04:55:49;99389.12;;;2.22;75.76
57791;BME280;43621;51.798;21.588;2023-01-20T04:59:51;99396.32;;;2.23;75.79
57791;BME280;43621;51.798;21.588;2023-01-20T05:03:53;99401.92;;;2.21;75.66
57791;BME280;43621;51.798;21.588;2023-01-20T05:07:54;99424.44;;;2.22;75.62
57791;BME280;43621;51.798;21.588;2023-01-20T05:11:58;99448.75;;;2.30;75.51
57791;BME280;43621;51.798;21.588;2023-01-20T05:15:59;99447.55;;;2.38;75.41
57791;BME280;43621;51.798;21.588;2023-01-20T05:20:01;99452.29;;;2.44;75.40
57791;BME280;43621;51.798;21.588;2023-01-20T05:24:04;99467.48;;;2.51;75.70
57791;BME280;43621;51.798;21.588;2023-01-20T05:28:06;99476.71;;;2.55;75.77
57791;BME280;43621;51.798;21.588;2023-01-20T05:32:08;99488.92;;;2.54;75.85
57791;BME280;43621;51.798;21.588;2023-01-20T05:36:11;99499.84;;;2.54;75.78
57791;BME280;43621;51.798;21.588;2023-01-20T05:40:13;99518.39;;;2.52;75.71
57791;BME280;43621;51.798;21.588;2023-01-20T05:44:15;99521.51;;;2.52;75.74
57791;BME280;43621;51.798;21.588;2023-01-20T05:48:17;99526.45;;;2.55;75.77
57791;BME280;43621;51.798;21.588;2023-01-20T05:52:20;99537.49;;;2.63;75.54
57791;BME280;43621;51.798;21.588;2023-01-20T05:56:22;99545.77;;;2.69;75.54
57791;BME280;43621;51.798;21.588;2023-01-20T06:00:24;99549.92;;;2.73;75.40
57791;BME280;43621;51.798;21.588;2023-01-20T06:04:25;99558.60;;;2.75;75.36
57791;BME280;43621;51.798;21.588;2023-01-20T06:08:28;99575.08;;;2.71;75.20
57791;BME280;43621;51.798;21.588;2023-01-20T06:12:30;99578.41;;;2.65;75.15
57791;BME280;43621;51.798;21.588;2023-01-20T06:16:32;99584.45;;;2.62;75.42
57791;BME280;43621;51.798;21.588;2023-01-20T06:20:33;99594.30;;;2.62;75.55
57791;BME280;43621;51.798;21.588;2023-01-20T06:24:35;99602.39;;;2.62;75.66
57791;BME280;43621;51.798;21.588;2023-01-20T06:28:38;99612.88;;;2.59;75.55
57791;BME280;43621;51.798;21.588;2023-01-20T06:32:40;99621.29;;;2.57;75.39
57791;BME280;43621;51.798;21.588;2023-01-20T06:36:42;99622.55;;;2.59;75.38
57791;BME280;43621;51.798;21.588;2023-01-20T06:40:43;99627.36;;;2.68;75.44
57791;BME280;43621;51.798;21.588;2023-01-20T06:44:45;99623.98;;;2.67;75.04
57791;BME280;43621;51.798;21.588;2023-01-20T06:48:47;99612.05;;;2.64;75.23
57791;BME280;43621;51.798;21.588;2023-01-20T06:52:49;99620.70;;;2.69;75.56
57791;BME280;43621;51.798;21.588;2023-01-20T06:56:51;99626.98;;;2.68;75.29
57791;BME280;43621;51.798;21.588;2023-01-20T07:00:54;99634.15;;;2.64;75.21
57791;BME280;43621;51.798;21.588;2023-01-20T07:04:56;99638.80;;;2.58;75.27
57791;BME280;43621;51.798;21.588;2023-01-20T07:09:00;99640.88;;;2.58;75.45
57791;BME280;43621;51.798;21.588;2023-01-20T07:13:02;99645.31;;;2.64;75.52
57791;BME280;43621;51.798;21.588;2023-01-20T07:17:08;99644.63;;;2.72;75.23
57791;BME280;43621;51.798;21.588;2023-01-20T07:21:11;99647.20;;;2.78;74.96
57791;BME280;43621;51.798;21.588;2023-01-20T07:25:13;99647.70;;;2.83;75.12
57791;BME280;43621;51.798;21.588;2023-01-20T07:29:15;99647.85;;;2.86;75.21
57791;BME280;43621;51.798;21.588;2023-01-20T07:33:17;99638.99;;;2.87;75.25
57791;BME280;43621;51.798;21.588;2023-01-20T07:37:19;99639.05;;;2.84;75.15
57791;BME280;43621;51.798;21.588;2023-01-20T07:41:21;99641.52;;;2.75;75.00
57791;BME280;43621;51.798;21.588;2023-01-20T07:45:23;99644.64;;;2.69;75.06
57791;BME280;43621;51.798;21.588;2023-01-20T07:49:26;99641.85;;;2.65;74.97
57791;BME280;43621;51.798;21.588;2023-01-20T07:53:28;99640.57;;;2.66;74.98
57791;BME280;43621;51.798;21.588;2023-01-20T07:57:30;99640.41;;;2.74;75.10
57791;BME280;43621;51.798;21.588;2023-01-20T08:01:32;99638.98;;;2.85;75.11
57791;BME280;43621;51.798;21.588;2023-01-20T08:05:34;99640.73;;;3.00;75.26
57791;BME280;43621;51.798;21.588;2023-01-20T08:09:36;99647.45;;;3.08;75.08
57791;BME280;43621;51.798;21.588;2023-01-20T08:13:38;99645.89;;;3.08;74.99
57791;BME280;43621;51.798;21.588;2023-01-20T08:17:41;99642.98;;;3.11;75.18
57791;BME280;43621;51.798;21.588;2023-01-20T08:21:43;99640.55;;;3.13;75.32
57791;BME280;43621;51.798;21.588;2023-01-20T08:25:44;99642.14;;;3.15;75.37
57791;BME280;43621;51.798;21.588;2023-01-20T08:29:46;99646.89;;;3.11;75.09
57791;BME280;43621;51.798;21.588;2023-01-20T08:33:53;99648.30;;;3.06;74.96
57791;BME280;43621;51.798;21.588;2023-01-20T08:37:55;99645.11;;;3.10;74.99
57791;BME280;43621;51.798;21.588;2023-01-20T08:41:57;99642.77;;;3.21;75.11
57791;BME280;43621;51.798;21.588;2023-01-20T08:46:05;99644.42;;;3.33;74.97
57791;BME280;43621;51.798;21.588;2023-01-20T08:50:09;99640.95;;;3.41;74.85
57791;BME280;43621;51.798;21.588;2023-01-20T08:54:11;99635.90;;;3.44;74.81
57791;BME280;43621;51.798;21.588;2023-01-20T08:58:13;99643.30;;;3.42;74.76
57791;BME280;43621;51.798;21.588;2023-01-20T09:02:15;99651.11;;;3.38;74.67
57791;BME280;43621;51.798;21.588;2023-01-20T09:06:17;99664.64;;;3.32;74.50
57791;BME280;43621;51.798;21.588;2023-01-20T09:10:20;99681.62;;;3.26;74.42
57791;BME280;43621;51.798;21.588;2023-01-20T09:14:23;99693.27;;;3.22;74.53
57791;BME280;43621;51.798;21.588;2023-01-20T09:18:25;99704.95;;;3.26;74.79
57791;BME280;43621;51.798;21.588;2023-01-20T09:22:27;99704.84;;;3.37;74.84
57791;BME280;43621;51.798;21.588;2023-01-20T09:26:29;99702.64;;;3.55;74.89
57791;BME280;43621;51.798;21.588;2023-01-20T09:30:38;99703.73;;;3.72;74.72
57791;BME280;43621;51.798;21.588;2023-01-20T09:34:40;99707.79;;;3.81;74.51
57791;BME280;43621;51.798;21.588;2023-01-20T09:38:42;99712.66;;;3.85;74.47
57791;BME280;43621;51.798;21.588;2023-01-20T09:43:15;99719.00;;;3.92;74.63
57791;BME280;43621;51.798;21.588;2023-01-20T09:47:45;99723.15;;;3.89;74.48
57791;BME280;43621;51.798;21.588;2023-01-20T09:56:39;99719.95;;;3.82;74.35
57791;BME280;43621;51.798;21.588;2023-01-20T10:00:46;99719.63;;;3.79;74.24
57791;BME280;43621;51.798;21.588;2023-01-20T10:05:06;99720.20;;;3.66;73.61
57791;BME280;43621;51.798;21.588;2023-01-20T10:13:43;99720.39;;;3.73;73.92
57791;BME280;43621;51.798;21.588;2023-01-20T10:18:04;99713.42;;;3.92;74.26
57791;BME280;43621;51.798;21.588;2023-01-20T10:22:20;99704.89;;;4.03;74.24
57791;BME280;43621;51.798;21.588;2023-01-20T10:26:56;99705.83;;;4.07;74.07
57791;BME280;43621;51.798;21.588;2023-01-20T10:31:00;99708.64;;;4.04;73.92
57791;BME280;43621;51.798;21.588;2023-01-20T10:35:11;99706.08;;;4.03;73.84
57791;BME280;43621;51.798;21.588;2023-01-20T10:39:26;99708.49;;;4.04;73.70
57791;BME280;43621;51.798;21.588;2023-01-20T10:43:30;99709.41;;;3.98;73.44
57791;BME280;43621;51.798;21.588;2023-01-20T10:56:43;99728.05;;;4.10;73.70
57791;BME280;43621;51.798;21.588;2023-01-20T11:00:46;99725.04;;;4.22;73.82
57791;BME280;43621;51.798;21.588;2023-01-20T11:04:57;99723.53;;;4.21;73.54
57791;BME280;43621;51.798;21.588;2023-01-20T11:09:15;99733.02;;;4.19;73.75
57791;BME280;43621;51.798;21.588;2023-01-20T11:13:20;99734.60;;;4.08;73.53
57791;BME280;43621;51.798;21.588;2023-01-20T11:17:22;99733.82;;;3.94;73.27
57791;BME280;43621;51.798;21.588;2023-01-20T11:21:25;99738.89;;;3.80;73.03
57791;BME280;43621;51.798;21.588;2023-01-20T11:25:28;99738.66;;;3.71;73.16
57791;BME280;43621;51.798;21.588;2023-01-20T11:29:35;99735.36;;;3.79;73.33
57791;BME280;43621;51.798;21.588;2023-01-20T11:33:53;99741.83;;;3.96;73.42
57791;BME280;43621;51.798;21.588;2023-01-20T11:37:55;99757.20;;;4.06;73.29
57791;BME280;43621;51.798;21.588;2023-01-20T11:42:15;99770.62;;;4.12;73.41
57791;BME280;43621;51.798;21.588;2023-01-20T11:46:30;99770.46;;;4.14;73.40
57791;BME280;43621;51.798;21.588;2023-01-20T11:50:45;99765.98;;;4.14;73.32
57791;BME280;43621;51.798;21.588;2023-01-20T11:54:47;99774.08;;;4.02;73.10
57791;BME280;43621;51.798;21.588;2023-01-20T11:58:55;99776.98;;;4.00;73.44
57791;BME280;43621;51.798;21.588;2023-01-20T12:12:35;99803.99;;;4.19;73.08
57791;BME280;43621;51.798;21.588;2023-01-20T12:16:12;99810.09;;;4.16;72.87
57791;BME280;43621;51.798;21.588;2023-01-20T12:24:43;99810.61;;;4.10;73.42
57791;BME280;43621;51.798;21.588;2023-01-20T12:29:18;99799.08;;;4.07;73.45
57791;BME280;43621;51.798;21.588;2023-01-20T12:33:28;99797.09;;;4.04;73.39
57791;BME280;43621;51.798;21.588;2023-01-20T12:38:01;99802.49;;;4.00;73.48
57791;BME280;43621;51.798;21.588;2023-01-20T12:42:31;99798.76;;;3.92;73.29
57791;BME280;43621;51.798;21.588;2023-01-20T12:46:43;99791.38;;;3.88;73.11
57791;BME280;43621;51.798;21.588;2023-01-20T12:55:51;99788.01;;;3.90;73.07
57791;BME280;43621;51.798;21.588;2023-01-20T13:08:44;99773.46;;;3.75;73.34
57791;BME280;43621;51.798;21.588;2023-01-20T13:13:07;99772.41;;;3.70;73.31
57791;BME280;43621;51.798;21.588;2023-01-20T13:21:28;99784.70;;;3.51;73.16
57791;BME280;43621;51.798;21.588;2023-01-20T13:25:32;99792.61;;;3.38;73.13
57791;BME280;43621;51.798;21.588;2023-01-20T13:33:41;99776.48;;;3.40;73.38
57791;BME280;43621;51.798;21.588;2023-01-20T13:37:54;99773.88;;;3.42;73.30
57791;BME280;43621;51.798;21.588;2023-01-20T13:41:58;99776.42;;;3.43;73.28
57791;BME280;43621;51.798;21.588;2023-01-20T13:58:34;99786.44;;;3.14;73.45
57791;BME280;43621;51.798;21.588;2023-01-20T14:02:37;99778.50;;;3.03;73.38
57791;BME280;43621;51.798;21.588;2023-01-20T14:06:46;99778.27;;;2.90;73.18
57791;BME280;43621;51.798;21.588;2023-01-20T14:10:49;99771.13;;;2.83;73.38
57791;BME280;43621;51.798;21.588;2023-01-20T14:14:51;99777.98;;;2.84;73.43
57791;BME280;43621;51.798;21.588;2023-01-20T14:18:55;99791.32;;;2.83;73.38
57791;BME280;43621;51.798;21.588;2023-01-20T14:23:25;99791.36;;;2.82;73.51
57791;BME280;43621;51.798;21.588;2023-01-20T14:27:29;99792.16;;;2.78;73.77
57791;BME280;43621;51.798;21.588;2023-01-20T14:31:37;99794.67;;;2.76;73.95
57791;BME280;43621;51.798;21.588;2023-01-20T14:35:43;99802.60;;;2.73;74.04
57791;BME280;43621;51.798;21.588;2023-01-20T14:39:48;99817.52;;;2.72;74.04
57791;BME280;43621;51.798;21.588;2023-01-20T14:43:50;99830.57;;;2.70;73.97
57791;BME280;43621;51.798;21.588;2023-01-20T14:47:53;99838.72;;;2.72;74.06
57791;BME280;43621;51.798;21.588;2023-01-20T14:51:56;99837.23;;;2.77;73.90
57791;BME280;43621;51.798;21.588;2023-01-20T14:56:04;99842.95;;;2.76;73.58
57791;BME280;43621;51.798;21.588;2023-01-20T15:00:12;99829.90;;;2.67;73.57
57791;BME280;43621;51.798;21.588;2023-01-20T15:04:14;99823.29;;;2.59;73.61
57791;BME280;43621;51.798;21.588;2023-01-20T15:08:22;99840.63;;;2.52;73.77
57791;BME280;43621;51.798;21.588;2023-01-20T15:20:50;99836.13;;;2.38;73.87
57791;BME280;43621;51.798;21.588;2023-01-20T15:24:53;99827.13;;;2.47;73.97
57791;BME280;43621;51.798;21.588;2023-01-20T15:28:56;99826.09;;;2.55;74.04
57791;BME280;43621;51.798;21.588;2023-01-20T15:32:58;99836.45;;;2.55;73.85
57791;BME280;43621;51.798;21.588;2023-01-20T15:37:01;99843.92;;;2.48;73.86
57791;BME280;43621;51.798;21.588;2023-01-20T15:41:03;99846.04;;;2.42;73.97
57791;BME280;43621;51.798;21.588;2023-01-20T15:45:05;99844.80;;;2.37;74.19
57791;BME280;43621;51.798;21.588;2023-01-20T15:49:11;99845.61;;;2.32;74.06
57791;BME280;43621;51.798;21.588;2023-01-20T15:53:13;99846.69;;;2.28;74.22
57791;BME280;43621;51.798;21.588;2023-01-20T15:57:16;99855.24;;;2.32;74.25
57791;BME280;43621;51.798;21.588;2023-01-20T16:01:21;99864.10;;;2.39;74.18
57791;BME280;43621;51.798;21.588;2023-01-20T16:05:24;99859.98;;;2.45;74.06
57791;BME280;43621;51.798;21.588;2023-01-20T16:09:26;99863.34;;;2.49;74.05
57791;BME280;43621;51.798;21.588;2023-01-20T16:13:31;99862.48;;;2.52;74.16
57791;BME280;43621;51.798;21.588;2023-01-20T16:17:33;99869.37;;;2.52;74.24
57791;BME280;43621;51.798;21.588;2023-01-20T16:21:34;99871.83;;;2.54;74.46
57791;BME280;43621;51.798;21.588;2023-01-20T16:25:37;99883.23;;;2.53;74.41
57791;BME280;43621;51.798;21.588;2023-01-20T16:29:39;99896.88;;;2.47;74.26
57791;BME280;43621;51.798;21.588;2023-01-20T16:33:41;99902.18;;;2.39;74.17
57791;BME280;43621;51.798;21.588;2023-01-20T16:37:44;99908.73;;;2.39;74.30
57791;BME280;43621;51.798;21.588;2023-01-20T16:41:47;99909.70;;;2.49;74.32
57791;BME280;43621;51.798;21.588;2023-01-20T16:45:50;99909.41;;;2.60;74.32
57791;BME280;43621;51.798;21.588;2023-01-20T16:49:54;99909.81;;;2.70;74.33
57791;BME280;43621;51.798;21.588;2023-01-20T16:53:57;99911.48;;;2.74;74.27
57791;BME280;43621;51.798;21.588;2023-01-20T16:57:59;99908.05;;;2.74;74.27
57791;BME280;43621;51.798;21.588;2023-01-20T17:02:01;99902.16;;;2.72;74.36
57791;BME280;43621;51.798;21.588;2023-01-20T17:06:19;99902.69;;;2.66;74.18
57791;BME280;43621;51.798;21.588;2023-01-20T17:10:23;99901.13;;;2.60;74.31
57791;BME280;43621;51.798;21.588;2023-01-20T17:14:25;99898.29;;;2.55;74.41
57791;BME280;43621;51.798;21.588;2023-01-20T17:18:27;99896.17;;;2.50;74.20
57791;BME280;43621;51.798;21.588;2023-01-20T17:22:29;99897.44;;;2.46;74.06
57791;BME280;43621;51.798;21.588;2023-01-20T17:26:31;99897.92;;;2.47;74.07
57791;BME280;43621;51.798;21.588;2023-01-20T17:30:33;99895.23;;;2.52;74.10
57791;BME280;43621;51.798;21.588;2023-01-20T17:34:35;99891.37;;;2.59;74.15
57791;BME280;43621;51.798;21.588;2023-01-20T17:38:37;99894.08;;;2.60;74.26
57791;BME280;43621;51.798;21.588;2023-01-20T17:42:40;99899.00;;;2.58;74.26
57791;BME280;43621;51.798;21.588;2023-01-20T17:46:46;99908.34;;;2.52;74.16
57791;BME280;43621;51.798;21.588;2023-01-20T17:50:52;99910.98;;;2.48;74.30
57791;BME280;43621;51.798;21.588;2023-01-20T17:54:59;99915.07;;;2.43;74.26
57791;BME280;43621;51.798;21.588;2023-01-20T17:59:01;99919.48;;;2.41;74.14
57791;BME280;43621;51.798;21.588;2023-01-20T18:03:03;99916.48;;;2.42;74.08
57791;BME280;43621;51.798;21.588;2023-01-20T18:07:05;99917.95;;;2.44;74.08
57791;BME280;43621;51.798;21.588;2023-01-20T18:11:10;99920.91;;;2.49;74.21
57791;BME280;43621;51.798;21.588;2023-01-20T18:15:13;99928.05;;;2.53;74.30
57791;BME280;43621;51.798;21.588;2023-01-20T18:19:15;99927.69;;;2.51;74.33
57791;BME280;43621;51.798;21.588;2023-01-20T18:23:17;99925.89;;;2.46;74.32
57791;BME280;43621;51.798;21.588;2023-01-20T18:27:18;99927.07;;;2.44;74.33
57791;BME280;43621;51.798;21.588;2023-01-20T18:31:22;99929.46;;;2.38;74.38
57791;BME280;43621;51.798;21.588;2023-01-20T18:35:24;99925.17;;;2.35;74.44
57791;BME280;43621;51.798;21.588;2023-01-20T18:39:26;99927.90;;;2.36;74.44
57791;BME280;43621;51.798;21.588;2023-01-20T18:43:29;99927.28;;;2.37;74.32
57791;BME280;43621;51.798;21.588;2023-01-20T18:47:31;99932.28;;;2.40;74.36
57791;BME280;43621;51.798;21.588;2023-01-20T18:51:33;99930.69;;;2.41;74.30
57791;BME280;43621;51.798;21.588;2023-01-20T18:55:35;99931.63;;;2.37;74.35
57791;BME280;43621;51.798;21.588;2023-01-20T18:59:37;99936.41;;;2.34;74.49
57791;BME280;43621;51.798;21.588;2023-01-20T19:03:40;99938.42;;;2.30;74.53
57791;BME280;43621;51.798;21.588;2023-01-20T19:07:47;99936.85;;;2.24;74.46
57791;BME280;43621;51.798;21.588;2023-01-20T19:11:49;99936.61;;;2.25;74.57
57791;BME280;43621;51.798;21.588;2023-01-20T19:15:51;99933.37;;;2.28;74.36
57791;BME280;43621;51.798;21.588;2023-01-20T19:19:53;99931.45;;;2.31;74.36
57791;BME280;43621;51.798;21.588;2023-01-20T19:23:56;99924.25;;;2.36;74.56
57791;BME280;43621;51.798;21.588;2023-01-20T19:27:58;99925.03;;;2.37;74.50
57791;BME280;43621;51.798;21.588;2023-01-20T19:32:00;99924.94;;;2.36;74.61
57791;BME280;43621;51.798;21.588;2023-01-20T19:36:04;99925.08;;;2.34;74.60
57791;BME280;43621;51.798;21.588;2023-01-20T19:40:08;99922.20;;;2.27;74.50
57791;BME280;43621;51.798;21.588;2023-01-20T19:44:10;99913.92;;;2.24;74.57
57791;BME280;43621;51.798;21.588;2023-01-20T19:48:14;99910.80;;;2.28;74.49
57791;BME280;43621;51.798;21.588;2023-01-20T19:52:15;99911.38;;;2.30;74.44
57791;BME280;43621;51.798;21.588;2023-01-20T19:56:18;99911.83;;;2.31;74.51
57791;BME280;43621;51.798;21.588;2023-01-20T20:00:21;99911.64;;;2.28;74.54
57791;BME280;43621;51.798;21.588;2023-01-20T20:04:23;99910.77;;;2.22;74.59
57791;BME280;43621;51.798;21.588;2023-01-20T20:08:26;99906.95;;;2.17;74.65
57791;BME280;43621;51.798;21.588;2023-01-20T20:12:29;99904.55;;;2.13;74.66
57791;BME280;43621;51.798;21.588;2023-01-20T20:16:34;99898.10;;;2.15;74.72
57791;BME280;43621;51.798;21.588;2023-01-20T20:20:36;99891.34;;;2.21;74.67
57791;BME280;43621;51.798;21.588;2023-01-20T20:24:38;99884.20;;;2.26;74.57
57791;BME280;43621;51.798;21.588;2023-01-20T20:28:40;99882.12;;;2.29;74.68
57791;BME280;43621;51.798;21.588;2023-01-20T20:32:42;99886.92;;;2.30;74.78
57791;BME280;43621;51.798;21.588;2023-01-20T20:36:46;99895.46;;;2.25;74.67
57791;BME280;43621;51.798;21.588;2023-01-20T20:40:48;99906.23;;;2.17;74.64
57791;BME280;43621;51.798;21.588;2023-01-20T20:44:50;99907.38;;;2.15;74.59
57791;BME280;43621;51.798;21.588;2023-01-20T20:48:56;99897.98;;;2.17;74.55
57791;BME280;43621;51.798;21.588;2023-01-20T20:53:00;99886.28;;;2.19;74.60
57791;BME280;43621;51.798;21.588;2023-01-20T20:57:02;99884.31;;;2.21;74.67
57791;BME280;43621;51.798;21.588;2023-01-20T21:01:04;99881.96;;;2.17;74.68
57791;BME280;43621;51.798;21.588;2023-01-20T21:05:09;99877.95;;;2.12;74.81
57791;BME280;43621;51.798;21.588;2023-01-20T21:09:10;99875.35;;;2.07;74.85
57791;BME280;43621;51.798;21.588;2023-01-20T21:13:12;99865.98;;;2.08;74.84
57791;BME280;43621;51.798;21.588;2023-01-20T21:17:15;99863.96;;;2.13;74.78
57791;BME280;43621;51.798;21.588;2023-01-20T21:21:18;99866.53;;;2.16;74.73
57791;BME280;43621;51.798;21.588;2023-01-20T21:25:20;99869.59;;;2.13;74.72
57791;BME280;43621;51.798;21.588;2023-01-20T21:29:24;99871.89;;;2.10;74.77
57791;BME280;43621;51.798;21.588;2023-01-20T21:33:26;99870.45;;;2.02;74.77
57791;BME280;43621;51.798;21.588;2023-01-20T21:37:28;99877.29;;;1.97;74.87
57791;BME280;43621;51.798;21.588;2023-01-20T21:41:30;99878.66;;;1.97;74.93
57791;BME280;43621;51.798;21.588;2023-01-20T21:45:32;99872.17;;;1.99;74.83
57791;BME280;43621;51.798;21.588;2023-01-20T21:49:34;99867.31;;;2.00;74.85
57791;BME280;43621;51.798;21.588;2023-01-20T21:53:54;99862.38;;;2.02;74.93
57791;BME280;43621;51.798;21.588;2023-01-20T21:57:56;99858.52;;;2.03;75.01
57791;BME280;43621;51.798;21.588;2023-01-20T22:01:58;99853.77;;;1.99;75.00
57791;BME280;43621;51.798;21.588;2023-01-20T22:06:04;99843.34;;;1.94;75.10
57791;BME280;43621;51.798;21.588;2023-01-20T22:10:06;99837.89;;;1.90;75.19
57791;BME280;43621;51.798;21.588;2023-01-20T22:14:09;99830.36;;;1.89;74.97
57791;BME280;43621;51.798;21.588;2023-01-20T22:18:11;99823.62;;;1.90;74.98
57791;BME280;43621;51.798;21.588;2023-01-20T22:22:13;99814.16;;;1.93;74.94
57791;BME280;43621;51.798;21.588;2023-01-20T22:26:15;99812.14;;;1.98;75.02
57791;BME280;43621;51.798;21.588;2023-01-20T22:30:17;99809.15;;;1.99;75.04
57791;BME280;43621;51.798;21.588;2023-01-20T22:34:19;99803.57;;;1.98;75.12
57791;BME280;43621;51.798;21.588;2023-01-20T22:38:21;99797.88;;;1.89;75.11
57791;BME280;43621;51.798;21.588;2023-01-20T22:42:23;99796.45;;;1.87;75.11
57791;BME280;43621;51.798;21.588;2023-01-20T22:46:26;99792.64;;;1.93;75.24
57791;BME280;43621;51.798;21.588;2023-01-20T22:50:29;99783.63;;;2.03;75.20
57791;BME280;43621;51.798;21.588;2023-01-20T22:54:31;99772.02;;;2.09;75.11
57791;BME280;43621;51.798;21.588;2023-01-20T22:58:33;99768.62;;;2.09;75.06
57791;BME280;43621;51.798;21.588;2023-01-20T23:02:35;99755.92;;;2.03;75.03
57791;BME280;43621;51.798;21.588;2023-01-20T23:06:39;99751.67;;;1.93;74.98